sensor_id;sensor_type;location;lat;lon;timestamp;pressure;altitude;pressure_sealevel;temperature;humidity
3598;BME280;1813;52.016;8.714;2022-10-31T00:00:06;-16261.94;;;-139.71;73.10
3598;BME280;1813;52.016;8.714;2022-10-31T00:02:43;-16261.94;;;-139.71;73.46
3598;BME280;1813;52.016;8.714;2022-10-31T00:05:17;-16261.94;;;-139.71;73.53
3598;BME280;1813;52.016;8.714;2022-10-31T00:07:54;-16261.94;;;-139.71;73.75
3598;BME280;1813;52.016;8.714;2022-10-31T00:10:28;-16261.94;;;-139.71;74.19
3598;BME280;1813;52.016;8.714;2022-10-31T00:13:02;-16261.94;;;-139.71;73.98
3598;BME280;1813;52.016;8.714;2022-10-31T00:15:37;-16261.94;;;-139.71;74.52
3598;BME280;1813;52.016;8.714;2022-10-31T00:18:11;-16261.94;;;-139.71;74.57
3598;BME280;1813;52.016;8.714;2022-10-31T00:20:45;-16261.94;;;-139.71;74.91
3598;BME280;1813;52.016;8.714;2022-10-31T00:23:22;-16261.94;;;-139.71;75.02
3598;BME280;1813;52.016;8.714;2022-10-31T00:26:00;-16261.94;;;-139.71;75.26
3598;BME280;1813;52.016;8.714;2022-10-31T00:28:34;-16261.94;;;-139.71;75.82
3598;BME280;1813;52.016;8.714;2022-10-31T00:31:10;-16261.94;;;-139.71;75.90
3598;BME280;1813;52.016;8.714;2022-10-31T00:33:44;-16261.94;;;-139.71;76.15
3598;BME280;1813;52.016;8.714;2022-10-31T00:36:21;-16261.94;;;-139.71;76.30
3598;BME280;1813;52.016;8.714;2022-10-31T00:38:58;-16261.94;;;-139.71;76.70
3598;BME280;1813;52.016;8.714;2022-10-31T00:41:32;-16261.94;;;-139.71;76.67
3598;BME280;1813;52.016;8.714;2022-10-31T00:44:06;-16261.94;;;-139.71;76.83
3598;BME280;1813;52.016;8.714;2022-10-31T00:46:40;-16261.94;;;-139.71;76.63
3598;BME280;1813;52.016;8.714;2022-10-31T00:49:14;-16261.94;;;-139.71;76.18
3598;BME280;1813;52.016;8.714;2022-10-31T00:51:48;-16261.94;;;-139.71;75.73
3598;BME280;1813;52.016;8.714;2022-10-31T00:54:24;-16261.94;;;-139.71;74.92
3598;BME280;1813;52.016;8.714;2022-10-31T00:56:59;-16261.94;;;-139.71;74.00
3598;BME280;1813;52.016;8.714;2022-10-31T00:59:33;-16261.94;;;-139.71;73.08
3598;BME280;1813;52.016;8.714;2022-10-31T01:02:07;-16261.94;;;-139.71;72.81
3598;BME280;1813;52.016;8.714;2022-10-31T01:04:41;-16261.94;;;-139.71;73.14
3598;BME280;1813;52.016;8.714;2022-10-31T01:07:15;-16261.94;;;-139.71;72.85
3598;BME280;1813;52.016;8.714;2022-10-31T01:09:52;-16261.94;;;-139.71;73.50
3598;BME280;1813;52.016;8.714;2022-10-31T01:12:26;-16261.94;;;-139.71;74.55
3598;BME280;1813;52.016;8.714;2022-10-31T01:15:01;-16261.94;;;-139.71;75.18
3598;BME280;1813;52.016;8.714;2022-10-31T01:17:35;-16261.94;;;-139.71;75.21
3598;BME280;1813;52.016;8.714;2022-10-31T01:20:11;-16261.94;;;-139.71;75.99
3598;BME280;1813;52.016;8.714;2022-10-31T01:22:46;-16261.94;;;-139.71;75.76
3598;BME280;1813;52.016;8.714;2022-10-31T01:25:22;-16261.94;;;-139.71;76.20
3598;BME280;1813;52.016;8.714;2022-10-31T01:27:56;-16261.94;;;-139.71;76.62
3598;BME280;1813;52.016;8.714;2022-10-31T01:30:31;-16261.94;;;-139.71;76.41
3598;BME280;1813;52.016;8.714;2022-10-31T01:33:05;-16261.94;;;-139.71;76.05
3598;BME280;1813;52.016;8.714;2022-10-31T01:35:39;-16261.94;;;-139.71;75.91
3598;BME280;1813;52.016;8.714;2022-10-31T01:38:13;-16261.94;;;-139.71;75.14
3598;BME280;1813;52.016;8.714;2022-10-31T01:40:51;-16261.94;;;-139.71;75.45
3598;BME280;1813;52.016;8.714;2022-10-31T01:43:41;-16261.94;;;-139.71;74.92
3598;BME280;1813;52.016;8.714;2022-10-31T01:46:19;-16261.94;;;-139.71;74.02
3598;BME280;1813;52.016;8.714;2022-10-31T01:48:55;-16261.94;;;-139.71;73.29
3598;BME280;1813;52.016;8.714;2022-10-31T01:51:36;-16261.94;;;-139.71;72.64
3598;BME280;1813;52.016;8.714;2022-10-31T01:54:12;-16261.94;;;-139.71;72.52
3598;BME280;1813;52.016;8.714;2022-10-31T01:56:53;-16261.94;;;-139.71;72.52
3598;BME280;1813;52.016;8.714;2022-10-31T01:59:30;-16261.94;;;-139.71;72.34
3598;BME280;1813;52.016;8.714;2022-10-31T02:02:06;-16261.94;;;-139.71;72.43
3598;BME280;1813;52.016;8.714;2022-10-31T02:04:41;-16261.94;;;-139.71;72.77
3598;BME280;1813;52.016;8.714;2022-10-31T02:07:18;-16261.94;;;-139.71;72.40
3598;BME280;1813;52.016;8.714;2022-10-31T02:09:55;-16261.94;;;-139.71;72.21
3598;BME280;1813;52.016;8.714;2022-10-31T02:12:34;-16261.94;;;-139.71;72.32
3598;BME280;1813;52.016;8.714;2022-10-31T02:15:10;-16261.94;;;-139.71;72.30
3598;BME280;1813;52.016;8.714;2022-10-31T02:17:47;-16261.94;;;-139.71;72.01
3598;BME280;1813;52.016;8.714;2022-10-31T02:20:22;-16261.94;;;-139.71;72.15
3598;BME280;1813;52.016;8.714;2022-10-31T02:23:31;-16261.94;;;-139.71;72.08
3598;BME280;1813;52.016;8.714;2022-10-31T02:26:36;-16261.94;;;-139.71;72.24
3598;BME280;1813;52.016;8.714;2022-10-31T02:35:55;-16261.94;;;-139.71;71.51
3598;BME280;1813;52.016;8.714;2022-10-31T02:38:43;-16261.94;;;-139.71;71.68
3598;BME280;1813;52.016;8.714;2022-10-31T02:41:37;-16261.94;;;-139.71;71.75
3598;BME280;1813;52.016;8.714;2022-10-31T02:44:21;-16261.94;;;-139.71;71.73
3598;BME280;1813;52.016;8.714;2022-10-31T02:47:00;-16261.94;;;-139.71;71.24
3598;BME280;1813;52.016;8.714;2022-10-31T02:49:48;-16261.94;;;-139.71;72.02
3598;BME280;1813;52.016;8.714;2022-10-31T02:52:26;-16261.94;;;-139.71;72.30
3598;BME280;1813;52.016;8.714;2022-10-31T02:55:11;-16261.94;;;-139.71;72.69
3598;BME280;1813;52.016;8.714;2022-10-31T02:57:45;-16261.94;;;-139.71;73.82
3598;BME280;1813;52.016;8.714;2022-10-31T03:00:19;-16261.94;;;-139.71;73.83
3598;BME280;1813;52.016;8.714;2022-10-31T03:03:00;-16261.94;;;-139.71;73.60
3598;BME280;1813;52.016;8.714;2022-10-31T03:05:55;-16261.94;;;-139.71;72.62
3598;BME280;1813;52.016;8.714;2022-10-31T03:08:36;-16261.94;;;-139.71;71.45
3598;BME280;1813;52.016;8.714;2022-10-31T03:11:17;-16261.94;;;-139.71;72.08
3598;BME280;1813;52.016;8.714;2022-10-31T03:14:00;-16261.94;;;-139.71;72.71
3598;BME280;1813;52.016;8.714;2022-10-31T03:16:41;-16261.94;;;-139.71;73.55
3598;BME280;1813;52.016;8.714;2022-10-31T03:19:23;-16261.94;;;-139.71;74.16
3598;BME280;1813;52.016;8.714;2022-10-31T03:22:02;-16261.94;;;-139.71;74.76
3598;BME280;1813;52.016;8.714;2022-10-31T03:24:39;-16261.94;;;-139.71;75.29
3598;BME280;1813;52.016;8.714;2022-10-31T03:27:16;-16261.94;;;-139.71;75.58
3598;BME280;1813;52.016;8.714;2022-10-31T03:29:54;-16261.94;;;-139.71;75.70
3598;BME280;1813;52.016;8.714;2022-10-31T03:32:31;-16261.94;;;-139.71;75.54
3598;BME280;1813;52.016;8.714;2022-10-31T03:35:10;-16261.94;;;-139.71;75.76
3598;BME280;1813;52.016;8.714;2022-10-31T03:37:51;-16261.94;;;-139.71;76.38
3598;BME280;1813;52.016;8.714;2022-10-31T03:40:27;-16261.94;;;-139.71;76.36
3598;BME280;1813;52.016;8.714;2022-10-31T03:43:07;-16261.94;;;-139.71;75.97
3598;BME280;1813;52.016;8.714;2022-10-31T03:45:45;-16261.94;;;-139.71;75.83
3598;BME280;1813;52.016;8.714;2022-10-31T03:48:20;-16261.94;;;-139.71;76.00
3598;BME280;1813;52.016;8.714;2022-10-31T03:51:00;-16261.94;;;-139.71;76.17
3598;BME280;1813;52.016;8.714;2022-10-31T03:53:45;-16261.94;;;-139.71;76.08
3598;BME280;1813;52.016;8.714;2022-10-31T03:56:31;-16261.94;;;-139.71;75.84
3598;BME280;1813;52.016;8.714;2022-10-31T03:59:10;-16261.94;;;-139.71;75.77
3598;BME280;1813;52.016;8.714;2022-10-31T04:01:50;-16261.94;;;-139.71;75.60
3598;BME280;1813;52.016;8.714;2022-10-31T04:04:27;-16261.94;;;-139.71;75.29
3598;BME280;1813;52.016;8.714;2022-10-31T04:07:03;-16261.94;;;-139.71;75.21
3598;BME280;1813;52.016;8.714;2022-10-31T04:09:44;-16261.94;;;-139.71;75.11
3598;BME280;1813;52.016;8.714;2022-10-31T04:12:20;-16261.94;;;-139.71;74.87
3598;BME280;1813;52.016;8.714;2022-10-31T04:15:09;-16261.94;;;-139.71;74.71
3598;BME280;1813;52.016;8.714;2022-10-31T04:17:47;-16261.94;;;-139.71;74.06
3598;BME280;1813;52.016;8.714;2022-10-31T04:20:29;-16261.94;;;-139.71;74.16
3598;BME280;1813;52.016;8.714;2022-10-31T04:23:04;-16261.94;;;-139.71;73.75
3598;BME280;1813;52.016;8.714;2022-10-31T04:25:41;-16261.94;;;-139.71;73.54
3598;BME280;1813;52.016;8.714;2022-10-31T04:28:15;-16261.94;;;-139.71;73.83
3598;BME280;1813;52.016;8.714;2022-10-31T04:30:50;-16261.94;;;-139.71;73.14
3598;BME280;1813;52.016;8.714;2022-10-31T04:33:24;-16261.94;;;-139.71;72.22
3598;BME280;1813;52.016;8.714;2022-10-31T04:35:58;-16261.94;;;-139.71;71.33
3598;BME280;1813;52.016;8.714;2022-10-31T04:38:32;-16261.94;;;-139.71;72.33
3598;BME280;1813;52.016;8.714;2022-10-31T04:41:12;-16261.94;;;-139.71;72.60
3598;BME280;1813;52.016;8.714;2022-10-31T04:43:55;-16261.94;;;-139.71;73.08
3598;BME280;1813;52.016;8.714;2022-10-31T04:46:31;-16261.94;;;-139.71;73.26
3598;BME280;1813;52.016;8.714;2022-10-31T04:49:07;-16261.94;;;-139.71;73.50
3598;BME280;1813;52.016;8.714;2022-10-31T04:51:41;-16261.94;;;-139.71;73.36
3598;BME280;1813;52.016;8.714;2022-10-31T04:54:15;-16261.94;;;-139.71;73.20
3598;BME280;1813;52.016;8.714;2022-10-31T04:57:10;-16261.94;;;-139.71;73.34
3598;BME280;1813;52.016;8.714;2022-10-31T04:59:44;-16261.94;;;-139.71;73.39
3598;BME280;1813;52.016;8.714;2022-10-31T05:02:18;-16261.94;;;-139.71;73.64
3598;BME280;1813;52.016;8.714;2022-10-31T05:04:59;-16261.94;;;-139.71;73.67
3598;BME280;1813;52.016;8.714;2022-10-31T05:07:38;-16261.94;;;-139.71;73.02
3598;BME280;1813;52.016;8.714;2022-10-31T05:10:16;-16261.94;;;-139.71;72.84
3598;BME280;1813;52.016;8.714;2022-10-31T05:12:57;-16261.94;;;-139.71;73.03
3598;BME280;1813;52.016;8.714;2022-10-31T05:15:51;-16261.94;;;-139.71;72.81
3598;BME280;1813;52.016;8.714;2022-10-31T05:18:34;-16261.94;;;-139.71;72.50
3598;BME280;1813;52.016;8.714;2022-10-31T05:21:26;-16261.94;;;-139.71;72.03
3598;BME280;1813;52.016;8.714;2022-10-31T05:24:05;-16261.94;;;-139.71;71.81
3598;BME280;1813;52.016;8.714;2022-10-31T05:26:40;-16261.94;;;-139.71;72.24
3598;BME280;1813;52.016;8.714;2022-10-31T05:29:17;-16261.94;;;-139.71;72.22
3598;BME280;1813;52.016;8.714;2022-10-31T05:31:52;-16261.94;;;-139.71;71.93
3598;BME280;1813;52.016;8.714;2022-10-31T05:34:46;-16261.94;;;-139.71;71.19
3598;BME280;1813;52.016;8.714;2022-10-31T05:37:38;-16261.94;;;-139.71;70.70
3598;BME280;1813;52.016;8.714;2022-10-31T05:40:14;-16261.94;;;-139.71;70.42
3598;BME280;1813;52.016;8.714;2022-10-31T05:42:51;-16261.94;;;-139.71;70.83
3598;BME280;1813;52.016;8.714;2022-10-31T05:45:29;-16261.94;;;-139.71;71.91
3598;BME280;1813;52.016;8.714;2022-10-31T05:48:08;-16261.94;;;-139.71;73.02
3598;BME280;1813;52.016;8.714;2022-10-31T05:51:05;-16261.94;;;-139.71;72.60
3598;BME280;1813;52.016;8.714;2022-10-31T05:53:39;-16261.94;;;-139.71;72.32
3598;BME280;1813;52.016;8.714;2022-10-31T05:56:16;-16261.94;;;-139.71;71.95
3598;BME280;1813;52.016;8.714;2022-10-31T05:58:50;-16261.94;;;-139.71;72.29
3598;BME280;1813;52.016;8.714;2022-10-31T06:01:26;-16261.94;;;-139.71;71.83
3598;BME280;1813;52.016;8.714;2022-10-31T06:04:04;-16261.94;;;-139.71;71.24
3598;BME280;1813;52.016;8.714;2022-10-31T06:06:40;-16261.94;;;-139.71;71.79
3598;BME280;1813;52.016;8.714;2022-10-31T06:09:14;-16261.94;;;-139.71;72.15
3598;BME280;1813;52.016;8.714;2022-10-31T06:11:49;-16261.94;;;-139.71;71.93
3598;BME280;1813;52.016;8.714;2022-10-31T06:14:49;-16261.94;;;-139.71;71.79
3598;BME280;1813;52.016;8.714;2022-10-31T06:17:26;-16261.94;;;-139.71;72.36
3598;BME280;1813;52.016;8.714;2022-10-31T06:20:24;-16261.94;;;-139.71;72.44
3598;BME280;1813;52.016;8.714;2022-10-31T06:23:06;-16261.94;;;-139.71;72.27
3598;BME280;1813;52.016;8.714;2022-10-31T06:25:40;-16261.94;;;-139.71;72.65
3598;BME280;1813;52.016;8.714;2022-10-31T06:28:17;-16261.94;;;-139.71;72.87
3598;BME280;1813;52.016;8.714;2022-10-31T06:31:01;-16261.94;;;-139.71;73.08
3598;BME280;1813;52.016;8.714;2022-10-31T06:33:40;-16261.94;;;-139.71;73.17
3598;BME280;1813;52.016;8.714;2022-10-31T06:36:14;-16261.94;;;-139.71;72.72
3598;BME280;1813;52.016;8.714;2022-10-31T06:38:48;-16261.94;;;-139.71;73.03
3598;BME280;1813;52.016;8.714;2022-10-31T06:41:27;-16261.94;;;-139.71;73.26
3598;BME280;1813;52.016;8.714;2022-10-31T06:44:01;-16261.94;;;-139.71;73.26
3598;BME280;1813;52.016;8.714;2022-10-31T06:46:55;-16261.94;;;-139.71;73.76
3598;BME280;1813;52.016;8.714;2022-10-31T06:49:51;-16261.94;;;-139.71;74.19
3598;BME280;1813;52.016;8.714;2022-10-31T06:52:27;-16261.94;;;-139.71;74.03
3598;BME280;1813;52.016;8.714;2022-10-31T06:55:01;-16261.94;;;-139.71;74.35
3598;BME280;1813;52.016;8.714;2022-10-31T06:57:37;-16261.94;;;-139.71;74.70
3598;BME280;1813;52.016;8.714;2022-10-31T07:00:13;-16261.94;;;-139.71;74.96
3598;BME280;1813;52.016;8.714;2022-10-31T07:09:19;-16261.94;;;-139.71;75.86
3598;BME280;1813;52.016;8.714;2022-10-31T07:11:54;-16261.94;;;-139.71;76.08
3598;BME280;1813;52.016;8.714;2022-10-31T07:14:27;-16261.94;;;-139.71;76.45
3598;BME280;1813;52.016;8.714;2022-10-31T07:17:01;-16261.94;;;-139.71;76.56
3598;BME280;1813;52.016;8.714;2022-10-31T07:19:45;-16261.94;;;-139.71;76.70
3598;BME280;1813;52.016;8.714;2022-10-31T07:22:21;-16261.94;;;-139.71;76.36
3598;BME280;1813;52.016;8.714;2022-10-31T07:24:57;-16261.94;;;-139.71;76.15
3598;BME280;1813;52.016;8.714;2022-10-31T07:27:42;-16261.94;;;-139.71;76.21
3598;BME280;1813;52.016;8.714;2022-10-31T07:30:17;-16261.94;;;-139.71;76.55
3598;BME280;1813;52.016;8.714;2022-10-31T07:32:54;-16261.94;;;-139.71;76.94
3598;BME280;1813;52.016;8.714;2022-10-31T07:35:31;-16261.94;;;-139.71;77.21
3598;BME280;1813;52.016;8.714;2022-10-31T07:38:10;-16261.94;;;-139.71;77.45
3598;BME280;1813;52.016;8.714;2022-10-31T07:40:49;-16261.94;;;-139.71;77.99
3598;BME280;1813;52.016;8.714;2022-10-31T07:43:24;-16261.94;;;-139.71;78.00
3598;BME280;1813;52.016;8.714;2022-10-31T07:46:28;-16261.94;;;-139.71;78.39
3598;BME280;1813;52.016;8.714;2022-10-31T07:49:21;-16261.94;;;-139.71;78.60
3598;BME280;1813;52.016;8.714;2022-10-31T07:52:15;-16261.94;;;-139.71;79.31
3598;BME280;1813;52.016;8.714;2022-10-31T07:55:17;-16261.94;;;-139.71;79.20
3598;BME280;1813;52.016;8.714;2022-10-31T07:58:00;-16261.94;;;-139.71;78.54
3598;BME280;1813;52.016;8.714;2022-10-31T08:00:35;-16261.94;;;-139.71;78.75
3598;BME280;1813;52.016;8.714;2022-10-31T08:03:10;-16261.94;;;-139.71;78.90
3598;BME280;1813;52.016;8.714;2022-10-31T08:06:03;-16261.94;;;-139.71;78.73
3598;BME280;1813;52.016;8.714;2022-10-31T08:08:57;-16261.94;;;-139.71;78.05
3598;BME280;1813;52.016;8.714;2022-10-31T08:11:31;-16261.94;;;-139.71;77.86
3598;BME280;1813;52.016;8.714;2022-10-31T08:14:10;-16261.94;;;-139.71;77.61
3598;BME280;1813;52.016;8.714;2022-10-31T08:16:43;-16261.94;;;-139.71;77.44
3598;BME280;1813;52.016;8.714;2022-10-31T08:19:18;-16261.94;;;-139.71;77.27
3598;BME280;1813;52.016;8.714;2022-10-31T08:21:52;-16261.94;;;-139.71;77.09
3598;BME280;1813;52.016;8.714;2022-10-31T08:24:26;-16261.94;;;-139.71;76.94
3598;BME280;1813;52.016;8.714;2022-10-31T08:27:03;-16261.94;;;-139.71;76.60
3598;BME280;1813;52.016;8.714;2022-10-31T08:29:39;-16261.94;;;-139.71;76.20
3598;BME280;1813;52.016;8.714;2022-10-31T08:32:14;-16261.94;;;-139.71;76.17
3598;BME280;1813;52.016;8.714;2022-10-31T08:35:10;-16261.94;;;-139.71;75.76
3598;BME280;1813;52.016;8.714;2022-10-31T08:38:21;-16261.94;;;-139.71;75.66
3598;BME280;1813;52.016;8.714;2022-10-31T08:40:55;-16261.94;;;-139.71;75.71
3598;BME280;1813;52.016;8.714;2022-10-31T08:43:30;-16261.94;;;-139.71;75.50
3598;BME280;1813;52.016;8.714;2022-10-31T08:46:07;-16261.94;;;-139.71;75.07
3598;BME280;1813;52.016;8.714;2022-10-31T08:48:43;-16261.94;;;-139.71;74.75
3598;BME280;1813;52.016;8.714;2022-10-31T08:51:16;-16261.94;;;-139.71;74.83
3598;BME280;1813;52.016;8.714;2022-10-31T08:53:54;-16261.94;;;-139.71;75.28
3598;BME280;1813;52.016;8.714;2022-10-31T08:56:37;-16261.94;;;-139.71;75.29
3598;BME280;1813;52.016;8.714;2022-10-31T08:59:26;-16261.94;;;-139.71;75.49
3598;BME280;1813;52.016;8.714;2022-10-31T09:02:37;-16261.94;;;-139.71;75.83
3598;BME280;1813;52.016;8.714;2022-10-31T09:05:11;-16261.94;;;-139.71;75.89
3598;BME280;1813;52.016;8.714;2022-10-31T09:07:45;-16261.94;;;-139.71;75.86
3598;BME280;1813;52.016;8.714;2022-10-31T09:10:20;-16261.94;;;-139.71;76.06
3598;BME280;1813;52.016;8.714;2022-10-31T09:12:57;-16261.94;;;-139.71;76.53
3598;BME280;1813;52.016;8.714;2022-10-31T09:15:51;-16261.94;;;-139.71;76.55
3598;BME280;1813;52.016;8.714;2022-10-31T09:18:31;-16261.94;;;-139.71;76.23
3598;BME280;1813;52.016;8.714;2022-10-31T09:21:05;-16261.94;;;-139.71;76.23
3598;BME280;1813;52.016;8.714;2022-10-31T09:23:39;-16261.94;;;-139.71;76.01
3598;BME280;1813;52.016;8.714;2022-10-31T09:26:13;-16261.94;;;-139.71;75.92
3598;BME280;1813;52.016;8.714;2022-10-31T09:29:05;-16261.94;;;-139.71;75.38
3598;BME280;1813;52.016;8.714;2022-10-31T09:31:41;-16261.94;;;-139.71;74.71
3598;BME280;1813;52.016;8.714;2022-10-31T09:34:38;-16261.94;;;-139.71;74.15
3598;BME280;1813;52.016;8.714;2022-10-31T09:37:17;-16261.94;;;-139.71;74.20
3598;BME280;1813;52.016;8.714;2022-10-31T09:39:51;-16261.94;;;-139.71;73.83
3598;BME280;1813;52.016;8.714;2022-10-31T09:42:50;-16261.94;;;-139.71;74.30
3598;BME280;1813;52.016;8.714;2022-10-31T09:45:32;-16261.94;;;-139.71;74.30
3598;BME280;1813;52.016;8.714;2022-10-31T09:48:27;-16261.94;;;-139.71;74.40
3598;BME280;1813;52.016;8.714;2022-10-31T09:51:32;-16261.94;;;-139.71;74.87
3598;BME280;1813;52.016;8.714;2022-10-31T09:54:19;-16261.94;;;-139.71;74.74
3598;BME280;1813;52.016;8.714;2022-10-31T09:56:56;-16261.94;;;-139.71;74.34
3598;BME280;1813;52.016;8.714;2022-10-31T09:59:34;-16261.94;;;-139.71;74.16
3598;BME280;1813;52.016;8.714;2022-10-31T10:02:14;-16261.94;;;-139.71;74.62
3598;BME280;1813;52.016;8.714;2022-10-31T10:04:55;-16261.94;;;-139.71;74.97
3598;BME280;1813;52.016;8.714;2022-10-31T10:07:40;-16261.94;;;-139.71;74.78
3598;BME280;1813;52.016;8.714;2022-10-31T10:10:50;-16261.94;;;-139.71;74.52
3598;BME280;1813;52.016;8.714;2022-10-31T10:13:57;-16261.94;;;-139.71;74.77
3598;BME280;1813;52.016;8.714;2022-10-31T10:16:44;-16261.94;;;-139.71;75.24
3598;BME280;1813;52.016;8.714;2022-10-31T10:19:30;-16261.94;;;-139.71;74.92
3598;BME280;1813;52.016;8.714;2022-10-31T10:22:10;-16261.94;;;-139.71;74.77
3598;BME280;1813;52.016;8.714;2022-10-31T10:24:59;-16261.94;;;-139.71;74.33
3598;BME280;1813;52.016;8.714;2022-10-31T10:27:46;-16261.94;;;-139.71;73.31
3598;BME280;1813;52.016;8.714;2022-10-31T10:30:22;-16261.94;;;-139.71;72.86
3598;BME280;1813;52.016;8.714;2022-10-31T10:32:59;-16261.94;;;-139.71;71.73
3598;BME280;1813;52.016;8.714;2022-10-31T10:35:39;-16261.94;;;-139.71;71.77
3598;BME280;1813;52.016;8.714;2022-10-31T10:38:22;-16261.94;;;-139.71;71.77
3598;BME280;1813;52.016;8.714;2022-10-31T10:41:01;-16261.94;;;-139.71;72.40
3598;BME280;1813;52.016;8.714;2022-10-31T10:43:37;-16261.94;;;-139.71;72.81
3598;BME280;1813;52.016;8.714;2022-10-31T10:46:18;-16261.94;;;-139.71;72.80
3598;BME280;1813;52.016;8.714;2022-10-31T10:49:17;-16261.94;;;-139.71;73.96
3598;BME280;1813;52.016;8.714;2022-10-31T10:51:56;-16261.94;;;-139.71;73.47
3598;BME280;1813;52.016;8.714;2022-10-31T10:54:45;-16261.94;;;-139.71;72.97
3598;BME280;1813;52.016;8.714;2022-10-31T10:57:32;-16261.94;;;-139.71;73.29
3598;BME280;1813;52.016;8.714;2022-10-31T11:00:18;-16261.94;;;-139.71;72.55
3598;BME280;1813;52.016;8.714;2022-10-31T11:02:52;-16261.94;;;-139.71;72.48
3598;BME280;1813;52.016;8.714;2022-10-31T11:05:33;-16261.94;;;-139.71;71.48
3598;BME280;1813;52.016;8.714;2022-10-31T11:08:07;-16261.94;;;-139.71;70.96
3598;BME280;1813;52.016;8.714;2022-10-31T11:10:41;-16261.94;;;-139.71;69.40
3598;BME280;1813;52.016;8.714;2022-10-31T11:13:21;-16261.94;;;-139.71;68.36
3598;BME280;1813;52.016;8.714;2022-10-31T11:15:59;-16261.94;;;-139.71;68.75
3598;BME280;1813;52.016;8.714;2022-10-31T11:18:37;-16261.94;;;-139.71;67.53
3598;BME280;1813;52.016;8.714;2022-10-31T11:21:20;-16261.94;;;-139.71;66.22
3598;BME280;1813;52.016;8.714;2022-10-31T11:24:02;-16261.94;;;-139.71;65.87
3598;BME280;1813;52.016;8.714;2022-10-31T11:26:37;-16261.94;;;-139.71;65.98
3598;BME280;1813;52.016;8.714;2022-10-31T11:29:16;-16261.94;;;-139.71;66.03
3598;BME280;1813;52.016;8.714;2022-10-31T11:31:54;-16261.94;;;-139.71;66.40
3598;BME280;1813;52.016;8.714;2022-10-31T11:34:32;-16261.94;;;-139.71;65.75
3598;BME280;1813;52.016;8.714;2022-10-31T11:37:12;-16261.94;;;-139.71;65.73
3598;BME280;1813;52.016;8.714;2022-10-31T11:39:50;-16261.94;;;-139.71;65.11
3598;BME280;1813;52.016;8.714;2022-10-31T11:42:29;-16261.94;;;-139.71;65.31
3598;BME280;1813;52.016;8.714;2022-10-31T11:45:17;-16261.94;;;-139.71;65.22
3598;BME280;1813;52.016;8.714;2022-10-31T11:47:52;-16261.94;;;-139.71;64.89
3598;BME280;1813;52.016;8.714;2022-10-31T11:50:32;-16261.94;;;-139.71;64.95
3598;BME280;1813;52.016;8.714;2022-10-31T11:53:16;-16261.94;;;-139.71;65.20
3598;BME280;1813;52.016;8.714;2022-10-31T11:56:02;-16261.94;;;-139.71;65.03
3598;BME280;1813;52.016;8.714;2022-10-31T11:58:37;-16261.94;;;-139.71;65.24
3598;BME280;1813;52.016;8.714;2022-10-31T12:01:24;-16261.94;;;-139.71;65.35
3598;BME280;1813;52.016;8.714;2022-10-31T12:04:04;-16261.94;;;-139.71;65.03
3598;BME280;1813;52.016;8.714;2022-10-31T12:06:41;-16261.94;;;-139.71;65.41
3598;BME280;1813;52.016;8.714;2022-10-31T12:09:20;-16261.94;;;-139.71;65.30
3598;BME280;1813;52.016;8.714;2022-10-31T12:12:07;-16261.94;;;-139.71;65.71
3598;BME280;1813;52.016;8.714;2022-10-31T12:14:49;-16261.94;;;-139.71;65.71
3598;BME280;1813;52.016;8.714;2022-10-31T12:17:32;-16261.94;;;-139.71;65.57
3598;BME280;1813;52.016;8.714;2022-10-31T12:20:19;-16261.94;;;-139.71;65.86
3598;BME280;1813;52.016;8.714;2022-10-31T12:23:01;-16261.94;;;-139.71;66.68
3598;BME280;1813;52.016;8.714;2022-10-31T12:25:42;-16261.94;;;-139.71;66.69
3598;BME280;1813;52.016;8.714;2022-10-31T12:28:36;-16261.94;;;-139.71;66.58
3598;BME280;1813;52.016;8.714;2022-10-31T12:31:27;-16261.94;;;-139.71;65.25
3598;BME280;1813;52.016;8.714;2022-10-31T12:34:27;-16261.94;;;-139.71;64.90
3598;BME280;1813;52.016;8.714;2022-10-31T12:37:15;-16261.94;;;-139.71;65.01
3598;BME280;1813;52.016;8.714;2022-10-31T12:39:58;-16261.94;;;-139.71;65.28
3598;BME280;1813;52.016;8.714;2022-10-31T12:42:46;-16261.94;;;-139.71;65.21
3598;BME280;1813;52.016;8.714;2022-10-31T12:45:33;-16261.94;;;-139.71;65.09
3598;BME280;1813;52.016;8.714;2022-10-31T12:48:24;-16261.94;;;-139.71;65.01
3598;BME280;1813;52.016;8.714;2022-10-31T12:51:11;-16261.94;;;-139.71;65.10
3598;BME280;1813;52.016;8.714;2022-10-31T12:53:59;-16261.94;;;-139.71;64.61
3598;BME280;1813;52.016;8.714;2022-10-31T12:56:44;-16261.94;;;-139.71;64.78
3598;BME280;1813;52.016;8.714;2022-10-31T12:59:34;-16261.94;;;-139.71;65.29
3598;BME280;1813;52.016;8.714;2022-10-31T13:02:15;-16261.94;;;-139.71;65.07
3598;BME280;1813;52.016;8.714;2022-10-31T13:04:54;-16261.94;;;-139.71;64.96
3598;BME280;1813;52.016;8.714;2022-10-31T13:07:37;-16261.94;;;-139.71;65.03
3598;BME280;1813;52.016;8.714;2022-10-31T13:10:18;-16261.94;;;-139.71;64.73
3598;BME280;1813;52.016;8.714;2022-10-31T13:12:57;-16261.94;;;-139.71;63.98
3598;BME280;1813;52.016;8.714;2022-10-31T13:15:38;-16261.94;;;-139.71;63.50
3598;BME280;1813;52.016;8.714;2022-10-31T13:18:23;-16261.94;;;-139.71;64.02
3598;BME280;1813;52.016;8.714;2022-10-31T13:21:05;-16261.94;;;-139.71;64.30
3598;BME280;1813;52.016;8.714;2022-10-31T13:23:49;-16261.94;;;-139.71;64.08
3598;BME280;1813;52.016;8.714;2022-10-31T13:26:42;-16261.94;;;-139.71;64.27
3598;BME280;1813;52.016;8.714;2022-10-31T13:29:20;-16261.94;;;-139.71;64.44
3598;BME280;1813;52.016;8.714;2022-10-31T13:31:55;-16261.94;;;-139.71;64.06
3598;BME280;1813;52.016;8.714;2022-10-31T13:34:33;-16261.94;;;-139.71;63.61
3598;BME280;1813;52.016;8.714;2022-10-31T13:37:14;-16261.94;;;-139.71;63.72
3598;BME280;1813;52.016;8.714;2022-10-31T13:40:07;-16261.94;;;-139.71;64.08
3598;BME280;1813;52.016;8.714;2022-10-31T13:42:53;-16261.94;;;-139.71;64.21
3598;BME280;1813;52.016;8.714;2022-10-31T13:45:30;-16261.94;;;-139.71;64.38
3598;BME280;1813;52.016;8.714;2022-10-31T13:48:19;-16261.94;;;-139.71;64.62
3598;BME280;1813;52.016;8.714;2022-10-31T13:50:58;-16261.94;;;-139.71;65.17
3598;BME280;1813;52.016;8.714;2022-10-31T13:53:41;-16261.94;;;-139.71;65.38
3598;BME280;1813;52.016;8.714;2022-10-31T13:56:25;-16261.94;;;-139.71;65.05
3598;BME280;1813;52.016;8.714;2022-10-31T13:59:18;-16261.94;;;-139.71;65.32
3598;BME280;1813;52.016;8.714;2022-10-31T14:01:56;-16261.94;;;-139.71;64.83
3598;BME280;1813;52.016;8.714;2022-10-31T14:04:36;-16261.94;;;-139.71;65.15
3598;BME280;1813;52.016;8.714;2022-10-31T14:07:12;-16261.94;;;-139.71;64.70
3598;BME280;1813;52.016;8.714;2022-10-31T14:09:53;-16261.94;;;-139.71;65.04
3598;BME280;1813;52.016;8.714;2022-10-31T14:12:36;-16261.94;;;-139.71;65.01